createdAt,value
2019-02-18T00:00:06.747Z,25.00
2019-02-18T00:01:06.736Z,25.50
2019-02-18T00:02:06.724Z,21.90
2019-02-18T00:03:06.713Z,24.30
2019-02-18T00:04:06.702Z,22.40
2019-02-18T00:05:06.691Z,22.30
2019-02-18T00:06:06.683Z,23.80
2019-02-18T00:07:14.023Z,24.80
2019-02-18T00:08:07.658Z,23.40
2019-02-18T00:09:06.649Z,24.10
2019-02-18T00:10:06.636Z,24.10
2019-02-18T00:11:06.625Z,22.10
2019-02-18T00:12:06.614Z,23.60
2019-02-18T00:13:06.602Z,23.20
2019-02-18T00:14:06.593Z,26.90
2019-02-18T00:15:06.581Z,22.50
2019-02-18T00:16:06.570Z,24.40
2019-02-18T00:17:06.559Z,23.00
2019-02-18T00:18:06.548Z,23.40
2019-02-18T00:19:06.537Z,21.80
2019-02-18T00:20:06.528Z,21.10
2019-02-18T00:21:06.517Z,22.80
2019-02-18T00:22:06.504Z,23.70
2019-02-18T00:23:06.493Z,24.40
2019-02-18T00:24:06.483Z,22.10
2019-02-18T00:25:06.477Z,23.00
2019-02-18T00:26:06.460Z,22.20
2019-02-18T00:27:06.458Z,22.40
2019-02-18T00:28:06.440Z,23.30
2019-02-18T00:29:06.432Z,24.00
2019-02-18T00:30:06.416Z,24.50
2019-02-18T00:31:06.413Z,24.30
2019-02-18T00:32:06.399Z,22.30
2019-02-18T00:33:06.382Z,21.00
2019-02-18T00:34:06.372Z,22.40
2019-02-18T00:35:06.384Z,23.70
2019-02-18T00:36:06.352Z,22.10
2019-02-18T00:37:06.338Z,21.60
2019-02-18T00:38:06.328Z,23.90
2019-02-18T00:39:06.316Z,25.40
2019-02-18T00:40:06.306Z,23.20
2019-02-18T00:41:06.295Z,22.90
2019-02-18T00:42:06.283Z,23.50
2019-02-18T00:43:06.272Z,23.80
2019-02-18T00:44:06.262Z,23.80
2019-02-18T00:45:06.253Z,24.50
2019-02-18T00:46:06.240Z,24.20
2019-02-18T00:47:06.229Z,26.70
2019-02-18T00:48:06.218Z,23.00
2019-02-18T00:49:06.208Z,23.10
2019-02-18T00:50:06.196Z,25.10
2019-02-18T00:51:06.186Z,23.20
2019-02-18T00:52:06.174Z,23.50
2019-02-18T00:53:06.164Z,23.20
2019-02-18T00:54:06.151Z,22.10
2019-02-18T00:55:06.238Z,22.20
2019-02-18T00:56:06.129Z,24.90
2019-02-18T00:57:06.120Z,24.20
2019-02-18T00:58:06.108Z,24.50
2019-02-18T00:59:06.098Z,23.60
2019-02-18T01:00:06.088Z,25.90
2019-02-18T01:01:06.077Z,22.50
2019-02-18T01:02:06.065Z,22.20
2019-02-18T01:03:06.056Z,24.80
2019-02-18T01:04:06.045Z,26.30
2019-02-18T01:05:06.036Z,26.40
2019-02-18T01:06:06.021Z,22.10
2019-02-18T01:07:06.015Z,23.50
2019-02-18T01:08:05.998Z,22.90
2019-02-18T01:09:05.987Z,23.40
2019-02-18T01:10:05.982Z,22.60
2019-02-18T01:11:05.966Z,22.90
2019-02-18T01:12:05.958Z,23.80
2019-02-18T01:13:05.943Z,23.00
2019-02-18T01:14:05.933Z,24.80
2019-02-18T01:15:05.921Z,24.50
2019-02-18T01:16:05.909Z,23.30
2019-02-18T01:17:05.901Z,23.60
2019-02-18T01:18:05.893Z,24.50
2019-02-18T01:19:05.877Z,21.10
2019-02-18T01:20:05.866Z,22.60
2019-02-18T01:21:05.856Z,21.40
2019-02-18T01:22:05.845Z,23.60
2019-02-18T01:23:05.836Z,23.80
2019-02-18T01:24:05.822Z,23.20
2019-02-18T01:25:05.812Z,25.50
2019-02-18T01:26:05.800Z,22.10
2019-02-18T01:27:05.790Z,25.10
2019-02-18T01:28:05.779Z,23.90
2019-02-18T01:29:05.770Z,23.20
2019-02-18T01:30:05.767Z,22.60
2019-02-18T01:31:05.745Z,24.30
2019-02-18T01:32:05.735Z,24.10
2019-02-18T01:33:05.792Z,24.00
2019-02-18T01:34:05.714Z,25.20
2019-02-18T01:35:05.701Z,24.70
2019-02-18T01:36:05.692Z,24.30
2019-02-18T01:37:05.679Z,22.70
2019-02-18T01:38:05.668Z,24.40
2019-02-18T01:39:05.658Z,22.10
2019-02-18T01:40:05.648Z,24.20
2019-02-18T01:41:05.636Z,23.20
2019-02-18T01:42:05.624Z,24.90
2019-02-18T01:43:05.616Z,24.70
2019-02-18T01:44:05.604Z,23.90
2019-02-18T01:45:05.593Z,24.60
2019-02-18T01:46:05.581Z,22.90
2019-02-18T01:47:05.570Z,22.80
2019-02-18T01:48:05.561Z,22.40
2019-02-18T01:49:05.547Z,23.70
2019-02-18T01:50:05.538Z,23.20
2019-02-18T01:51:05.530Z,24.50
2019-02-18T01:52:05.517Z,24.50
2019-02-18T01:53:05.516Z,23.10
2019-02-18T01:54:05.493Z,22.50
2019-02-18T01:55:05.484Z,23.60
2019-02-18T01:56:05.473Z,23.30
2019-02-18T01:57:05.460Z,22.70
2019-02-18T01:58:05.449Z,24.50
2019-02-18T01:59:05.439Z,22.90
2019-02-18T02:00:05.427Z,25.10
2019-02-18T02:01:05.416Z,25.10
2019-02-18T02:02:05.405Z,25.30
2019-02-18T02:03:05.394Z,25.00
2019-02-18T02:04:05.383Z,23.30
2019-02-18T02:05:05.380Z,23.20
2019-02-18T02:06:05.361Z,25.10
2019-02-18T02:07:05.351Z,26.20
2019-02-18T02:08:05.339Z,22.60
2019-02-18T02:09:05.330Z,24.30
2019-02-18T02:10:05.319Z,23.10
2019-02-18T02:11:05.315Z,25.30
2019-02-18T02:12:05.297Z,25.40
2019-02-18T02:13:05.285Z,23.00
2019-02-18T02:14:05.274Z,23.10
2019-02-18T02:15:05.263Z,21.40
2019-02-18T02:16:05.252Z,24.70
2019-02-18T02:17:05.240Z,24.50
2019-02-18T02:18:05.234Z,24.90
2019-02-18T02:19:05.219Z,25.80
2019-02-18T02:20:05.208Z,24.20
2019-02-18T02:21:05.199Z,23.20
2019-02-18T02:22:05.186Z,24.60
2019-02-18T02:23:05.175Z,25.60
2019-02-18T02:24:05.166Z,25.30
2019-02-18T02:25:05.153Z,23.10
2019-02-18T02:26:05.145Z,24.90
2019-02-18T02:27:05.132Z,23.60
2019-02-18T02:28:05.122Z,24.80
2019-02-18T02:29:05.111Z,22.70
2019-02-18T02:30:05.099Z,25.50
2019-02-18T02:31:05.088Z,23.80
2019-02-18T02:32:05.076Z,24.60
2019-02-18T02:33:05.066Z,24.30
2019-02-18T02:34:05.062Z,24.90
2019-02-18T02:35:05.044Z,25.00
2019-02-18T02:36:05.036Z,24.70
2019-02-18T02:37:05.022Z,23.90
2019-02-18T02:38:08.007Z,23.60
2019-02-18T02:39:05.005Z,24.40
2019-02-18T02:40:04.992Z,27.90
2019-02-18T02:41:04.979Z,24.40
2019-02-18T02:42:04.967Z,24.10
2019-02-18T02:43:04.958Z,25.00
2019-02-18T02:44:04.944Z,22.50
2019-02-18T02:45:04.936Z,22.50
2019-02-18T02:46:04.928Z,25.40
2019-02-18T02:47:04.912Z,23.60
2019-02-18T02:48:04.902Z,23.50
2019-02-18T02:49:04.891Z,22.00
2019-02-18T02:50:04.888Z,23.30
2019-02-18T02:51:04.873Z,24.20
2019-02-18T02:52:04.862Z,22.90
2019-02-18T02:53:04.850Z,25.90
2019-02-18T02:54:04.838Z,24.70
2019-02-18T02:55:04.826Z,23.70
2019-02-18T02:56:04.816Z,26.00
2019-02-18T02:57:04.804Z,27.50
2019-02-18T02:58:04.794Z,26.60
2019-02-18T02:59:04.781Z,23.30
2019-02-18T03:00:04.771Z,24.40
2019-02-18T03:01:04.762Z,24.20
2019-02-18T03:02:04.749Z,25.00
2019-02-18T03:03:04.739Z,24.40
2019-02-18T03:04:04.730Z,25.80
2019-02-18T03:05:04.713Z,24.80
2019-02-18T03:06:04.704Z,24.60
2019-02-18T03:07:04.693Z,22.80
2019-02-18T03:08:04.688Z,24.40
2019-02-18T03:09:04.679Z,26.60
2019-02-18T03:10:04.663Z,25.30
2019-02-18T03:11:04.649Z,25.60
2019-02-18T03:12:04.638Z,23.40
2019-02-18T03:13:04.629Z,23.50
2019-02-18T03:14:04.615Z,24.60
2019-02-18T03:15:04.608Z,26.30
2019-02-18T03:16:04.595Z,23.70
2019-02-18T03:17:04.585Z,24.30
2019-02-18T03:18:04.572Z,24.10
2019-02-18T03:19:04.562Z,24.10
2019-02-18T03:20:04.551Z,26.70
2019-02-18T03:21:04.543Z,26.80
2019-02-18T03:22:04.538Z,26.90
2019-02-18T03:23:04.516Z,27.00
2019-02-18T03:24:04.506Z,25.80
2019-02-18T03:25:04.494Z,26.50
2019-02-18T03:26:04.485Z,26.60
2019-02-18T03:27:04.474Z,28.40
2019-02-18T03:28:04.463Z,27.30
2019-02-18T03:29:04.453Z,25.20
2019-02-18T03:30:04.439Z,25.70
2019-02-18T03:31:04.439Z,25.30
2019-02-18T03:32:04.419Z,25.70
2019-02-18T03:33:04.426Z,25.70
2019-02-18T03:34:04.398Z,26.70
2019-02-18T03:35:04.386Z,25.70
2019-02-18T03:36:04.380Z,26.50
2019-02-18T03:37:04.367Z,25.50
2019-02-18T03:38:04.354Z,24.40
2019-02-18T03:39:04.342Z,25.10
2019-02-18T03:40:04.331Z,27.40
2019-02-18T03:41:04.319Z,25.60
2019-02-18T03:42:04.309Z,25.60
2019-02-18T03:43:04.300Z,25.10
2019-02-18T03:44:04.288Z,28.50
2019-02-18T03:45:04.278Z,24.40
2019-02-18T03:46:04.264Z,26.80
2019-02-18T03:47:04.253Z,24.40
2019-02-18T03:48:04.245Z,29.30
2019-02-18T03:49:04.232Z,25.80
2019-02-18T03:50:04.222Z,25.30
2019-02-18T03:51:04.217Z,26.00
2019-02-18T03:52:04.197Z,26.60
2019-02-18T03:53:04.188Z,25.40
2019-02-18T03:54:04.175Z,26.70
2019-02-18T03:55:04.164Z,25.20
2019-02-18T03:56:04.155Z,26.90
2019-02-18T03:57:04.147Z,25.00
2019-02-18T03:58:04.131Z,25.40
2019-02-18T03:59:04.120Z,24.80
2019-02-18T04:00:04.112Z,27.00
2019-02-18T04:01:04.115Z,25.60
2019-02-18T04:02:04.091Z,24.80
2019-02-18T04:03:04.077Z,27.70
2019-02-18T04:04:04.070Z,26.20
2019-02-18T04:05:04.055Z,26.20
2019-02-18T04:06:04.042Z,25.60
2019-02-18T04:07:04.031Z,26.10
2019-02-18T04:08:04.024Z,28.30
2019-02-18T04:09:04.010Z,26.30
2019-02-18T04:10:04.000Z,24.20
2019-02-18T04:11:03.988Z,24.10
2019-02-18T04:12:03.978Z,25.80
2019-02-18T04:13:03.966Z,25.30
2019-02-18T04:14:03.954Z,23.60
2019-02-18T04:15:03.945Z,24.50
2019-02-18T04:16:03.933Z,26.00
2019-02-18T04:17:03.929Z,25.10
2019-02-18T04:18:03.912Z,23.70
2019-02-18T04:19:03.899Z,26.10
2019-02-18T04:20:03.889Z,25.40
2019-02-18T04:21:03.877Z,25.30
2019-02-18T04:22:03.867Z,25.50
2019-02-18T04:23:03.858Z,25.70
2019-02-18T04:24:03.844Z,25.30
2019-02-18T04:25:03.834Z,23.50
2019-02-18T04:26:03.822Z,24.60
2019-02-18T04:27:03.813Z,30.00
2019-02-18T04:28:03.805Z,27.80
2019-02-18T04:29:03.810Z,25.50
2019-02-18T04:30:03.779Z,24.30
2019-02-18T04:31:03.766Z,24.30
2019-02-18T04:32:03.757Z,23.60
2019-02-18T04:33:03.748Z,25.20
2019-02-18T04:34:03.734Z,26.10
2019-02-18T04:35:03.723Z,26.40
2019-02-18T04:36:03.715Z,26.80
2019-02-18T04:37:03.706Z,23.90
2019-02-18T04:38:03.693Z,22.90
2019-02-18T04:39:03.680Z,24.70
2019-02-18T04:40:03.668Z,23.50
2019-02-18T04:41:03.658Z,26.60
2019-02-18T04:42:03.648Z,24.00
2019-02-18T04:43:03.639Z,26.20
2019-02-18T04:44:03.633Z,26.90
2019-02-18T04:45:03.614Z,24.40
2019-02-18T04:46:03.608Z,25.60
2019-02-18T04:47:03.593Z,28.40
2019-02-18T04:48:03.584Z,23.90
2019-02-18T04:49:03.572Z,29.40
2019-02-18T04:50:03.578Z,24.80
2019-02-18T04:51:03.554Z,25.60
2019-02-18T04:52:03.618Z,25.90
2019-02-18T04:53:03.527Z,26.80
2019-02-18T04:54:03.524Z,26.20
2019-02-18T04:55:03.508Z,24.70
2019-02-18T04:56:03.502Z,24.60
2019-02-18T04:57:03.483Z,26.40
2019-02-18T04:58:06.033Z,26.80
2019-02-18T04:59:03.466Z,28.50
2019-02-18T05:00:03.454Z,28.20
2019-02-18T05:01:03.450Z,25.00
2019-02-18T05:02:03.433Z,27.50
2019-02-18T05:03:03.418Z,26.10
2019-02-18T05:04:03.409Z,26.00
2019-02-18T05:05:03.402Z,26.50
2019-02-18T05:06:03.387Z,27.00
2019-02-18T05:07:03.382Z,29.00
2019-02-18T05:08:03.365Z,26.20
2019-02-18T05:09:05.701Z,27.00
2019-02-18T05:10:03.347Z,29.10
2019-02-18T05:11:03.332Z,27.20
2019-02-18T05:12:03.328Z,31.80
2019-02-18T05:13:03.318Z,26.80
2019-02-18T05:14:03.299Z,26.10
2019-02-18T05:15:03.289Z,27.00
2019-02-18T05:16:03.280Z,27.80
2019-02-18T05:17:03.270Z,27.00
2019-02-18T05:18:03.269Z,27.70
2019-02-18T05:19:03.248Z,31.30
2019-02-18T05:20:03.233Z,26.70
2019-02-18T05:21:03.226Z,27.40
2019-02-18T05:22:03.217Z,27.90
2019-02-18T05:23:03.201Z,25.80
2019-02-18T05:24:03.193Z,29.80
2019-02-18T05:25:03.178Z,29.80
2019-02-18T05:26:03.169Z,29.20
2019-02-18T05:27:03.161Z,29.20
2019-02-18T05:28:03.146Z,28.20
2019-02-18T05:29:03.140Z,29.30
2019-02-18T05:30:03.124Z,28.30
2019-02-18T05:31:03.115Z,27.90
2019-02-18T05:32:03.102Z,29.20
2019-02-18T05:33:03.093Z,30.20
2019-02-18T05:34:03.087Z,28.20
2019-02-18T05:35:03.072Z,27.70
2019-02-18T05:36:03.061Z,28.50
2019-02-18T05:37:03.051Z,29.00
2019-02-18T05:38:03.114Z,27.50
2019-02-18T05:39:03.025Z,29.70
2019-02-18T05:40:03.031Z,32.10
2019-02-18T05:41:03.003Z,31.30
2019-02-18T05:42:03.001Z,32.30
2019-02-18T05:43:02.988Z,28.40
2019-02-18T05:44:02.979Z,27.40
2019-02-18T05:45:02.963Z,29.70
2019-02-18T05:46:02.954Z,30.10
2019-02-18T05:47:02.944Z,27.80
2019-02-18T05:48:02.933Z,28.40
2019-02-18T05:49:02.919Z,27.40
2019-02-18T05:50:02.911Z,29.10
2019-02-18T05:51:02.897Z,32.70
2019-02-18T05:52:02.905Z,28.90
2019-02-18T05:53:02.876Z,28.00
2019-02-18T05:54:02.870Z,27.80
2019-02-18T05:55:02.853Z,31.60
2019-02-18T05:56:02.885Z,32.00
2019-02-18T05:57:02.833Z,28.30
2019-02-18T05:58:02.822Z,31.50
2019-02-18T05:59:02.813Z,31.60
2019-02-18T06:00:02.798Z,29.40
2019-02-18T06:01:02.790Z,31.90
2019-02-18T06:02:02.778Z,29.40
2019-02-18T06:03:02.766Z,33.10
2019-02-18T06:04:02.756Z,31.00
2019-02-18T06:05:02.749Z,33.20
2019-02-18T06:06:02.735Z,32.50
2019-02-18T06:07:02.725Z,30.70
2019-02-18T06:08:02.715Z,35.00
2019-02-18T06:09:02.702Z,35.10
2019-02-18T06:10:02.691Z,33.30
2019-02-18T06:11:02.684Z,33.00
2019-02-18T06:12:02.669Z,34.70
2019-02-18T06:13:02.658Z,33.70
2019-02-18T06:14:02.646Z,33.70
2019-02-18T06:15:02.637Z,34.00
2019-02-18T06:16:02.629Z,33.90
2019-02-18T06:17:02.943Z,30.70
2019-02-18T06:18:02.603Z,32.50
2019-02-18T06:19:02.593Z,32.70
2019-02-18T06:20:02.582Z,33.20
2019-02-18T06:21:02.572Z,34.50
2019-02-18T06:22:02.560Z,33.10
2019-02-18T06:23:02.551Z,30.80
2019-02-18T06:24:02.538Z,30.70
2019-02-18T06:25:02.529Z,30.90
2019-02-18T06:26:02.520Z,30.90
2019-02-18T06:27:02.507Z,30.80
2019-02-18T06:28:04.884Z,31.60
2019-02-18T06:29:02.484Z,30.80
2019-02-18T06:30:02.480Z,31.60
2019-02-18T06:31:02.462Z,33.70
2019-02-18T06:32:02.453Z,31.30
2019-02-18T06:33:02.447Z,31.80
2019-02-18T06:34:02.433Z,35.20
2019-02-18T06:35:02.419Z,30.10
2019-02-18T06:36:02.407Z,30.40
2019-02-18T06:37:02.399Z,49.90
2019-02-18T06:38:02.393Z,69.00
2019-02-18T06:39:02.380Z,76.30
2019-02-18T06:40:02.368Z,96.10
2019-02-18T06:41:02.354Z,58.50
2019-02-18T06:42:02.342Z,44.10
2019-02-18T06:43:02.331Z,35.70
2019-02-18T06:44:02.323Z,32.80
2019-02-18T06:45:02.312Z,32.50
2019-02-18T06:46:02.299Z,33.60
2019-02-18T06:47:02.293Z,33.90
2019-02-18T06:48:02.276Z,30.30
2019-02-18T06:49:02.266Z,29.70
2019-02-18T06:50:02.257Z,30.10
2019-02-18T06:51:02.250Z,30.60
2019-02-18T06:52:02.238Z,33.50
2019-02-18T06:53:02.223Z,30.20
2019-02-18T06:54:02.212Z,29.50
2019-02-18T06:55:02.201Z,33.70
2019-02-18T06:56:02.189Z,30.00
2019-02-18T06:57:02.179Z,30.40
2019-02-18T06:58:02.167Z,31.40
2019-02-18T06:59:02.156Z,30.50
2019-02-18T07:00:02.145Z,30.50
2019-02-18T07:01:02.134Z,32.70
2019-02-18T07:02:02.121Z,31.20
2019-02-18T07:03:02.112Z,31.30
2019-02-18T07:04:02.100Z,30.80
2019-02-18T07:05:02.093Z,31.70
2019-02-18T07:06:02.078Z,32.60
2019-02-18T07:07:02.067Z,31.70
2019-02-18T07:08:02.058Z,35.20
2019-02-18T07:09:02.045Z,38.00
2019-02-18T07:10:02.044Z,35.30
2019-02-18T07:11:02.029Z,32.30
2019-02-18T07:12:02.023Z,32.00
2019-02-18T07:13:02.001Z,28.20
2019-02-18T07:14:01.991Z,31.50
2019-02-18T07:15:01.978Z,33.00
2019-02-18T07:16:01.973Z,30.30
2019-02-18T07:17:01.959Z,29.80
2019-02-18T07:18:01.948Z,30.90
2019-02-18T07:19:01.936Z,34.30
2019-02-18T07:20:01.928Z,34.00
2019-02-18T07:21:01.913Z,33.70
2019-02-18T07:22:01.903Z,32.30
2019-02-18T07:23:01.893Z,30.00
2019-02-18T07:24:01.882Z,31.30
2019-02-18T07:25:01.878Z,30.30
2019-02-18T07:26:01.863Z,32.80
2019-02-18T07:27:01.851Z,32.10
2019-02-18T07:28:01.836Z,31.90
2019-02-18T07:29:01.826Z,28.90
2019-02-18T07:30:01.814Z,32.10
2019-02-18T07:31:01.875Z,32.40
2019-02-18T07:32:01.795Z,31.90
2019-02-18T07:33:01.783Z,32.50
2019-02-18T07:34:01.772Z,32.20
2019-02-18T07:35:01.762Z,31.00
2019-02-18T07:36:01.750Z,30.20
2019-02-18T07:37:01.739Z,32.90
2019-02-18T07:38:01.726Z,32.10
2019-02-18T07:39:01.716Z,32.10
2019-02-18T07:40:02.394Z,32.20
2019-02-18T07:41:01.695Z,32.70
2019-02-18T07:42:01.681Z,31.30
2019-02-18T07:43:01.674Z,33.00
2019-02-18T07:44:01.660Z,31.80
2019-02-18T07:45:01.649Z,30.30
2019-02-18T07:46:01.637Z,32.70
2019-02-18T07:47:01.636Z,32.20
2019-02-18T07:48:01.617Z,34.00
2019-02-18T07:49:01.607Z,32.50
2019-02-18T07:50:01.597Z,32.00
2019-02-18T07:51:01.583Z,32.40
2019-02-18T07:52:01.575Z,33.60
2019-02-18T07:53:01.561Z,33.00
2019-02-18T07:54:19.696Z,32.40
2019-02-18T07:55:43.087Z,31.50
2019-02-18T07:56:43.075Z,35.20
2019-02-18T07:57:43.065Z,34.20
2019-02-18T07:58:43.055Z,30.50
2019-02-18T07:59:43.056Z,36.30
2019-02-18T08:00:43.035Z,31.80
2019-02-18T08:01:43.020Z,31.30
2019-02-18T08:02:43.027Z,40.40
2019-02-18T08:03:43.000Z,61.70
2019-02-18T08:04:43.023Z,62.50
2019-02-18T08:05:43.041Z,48.60
2019-02-18T08:06:42.966Z,47.50
2019-02-18T08:07:42.958Z,41.90
2019-02-18T08:08:42.944Z,37.30
2019-02-18T08:09:42.931Z,36.70
2019-02-18T08:10:42.925Z,32.30
2019-02-18T08:11:42.923Z,32.10
2019-02-18T08:12:42.904Z,31.90
2019-02-18T08:13:42.889Z,31.90
2019-02-18T08:14:42.881Z,35.00
2019-02-18T08:15:42.866Z,33.10
2019-02-18T08:16:42.859Z,35.80
2019-02-18T08:17:42.846Z,33.10
2019-02-18T08:18:42.834Z,31.70
2019-02-18T08:19:42.821Z,30.20
2019-02-18T08:20:42.811Z,31.20
2019-02-18T08:21:42.799Z,30.50
2019-02-18T08:22:42.798Z,31.10
2019-02-18T08:23:42.795Z,34.00
2019-02-18T08:24:42.789Z,36.70
2019-02-18T08:25:42.756Z,33.60
2019-02-18T08:26:44.180Z,31.40
2019-02-18T08:27:42.739Z,31.70
2019-02-18T08:28:42.723Z,32.20
2019-02-18T08:29:42.725Z,31.40
2019-02-18T08:30:42.731Z,29.30
2019-02-18T08:31:42.714Z,35.60
2019-02-18T08:32:42.697Z,30.20
2019-02-18T08:33:42.691Z,33.70
2019-02-18T08:34:42.677Z,30.90
2019-02-18T08:35:42.667Z,32.60
2019-02-18T08:36:42.689Z,30.40
2019-02-18T08:37:42.645Z,31.30
2019-02-18T08:38:42.629Z,29.70
2019-02-18T08:39:42.634Z,30.70
2019-02-18T08:40:42.621Z,30.50
2019-02-18T08:41:42.598Z,29.10
2019-02-18T08:42:42.594Z,30.50
2019-02-18T08:43:42.575Z,33.40
2019-02-18T08:44:42.573Z,29.30
2019-02-18T08:45:42.560Z,31.00
2019-02-18T08:46:42.539Z,28.30
2019-02-18T08:47:42.537Z,28.10
2019-02-18T08:48:42.526Z,31.00
2019-02-18T08:49:42.505Z,30.50
2019-02-18T08:50:42.492Z,27.70
2019-02-18T08:51:42.530Z,30.00
2019-02-18T08:52:42.496Z,30.80
2019-02-18T08:53:42.473Z,27.50
2019-02-18T08:54:42.442Z,30.90
2019-02-18T08:55:42.440Z,29.30
2019-02-18T08:56:42.426Z,28.90
2019-02-18T08:57:42.430Z,28.80
2019-02-18T08:58:42.421Z,29.10
2019-02-18T08:59:42.414Z,27.70
2019-02-18T09:00:42.403Z,28.30
2019-02-18T09:01:42.391Z,26.30
2019-02-18T09:02:42.376Z,29.60
2019-02-18T09:03:42.358Z,28.40
2019-02-18T09:04:42.340Z,29.20
2019-02-18T09:05:42.346Z,28.10
2019-02-18T09:06:42.343Z,29.00
2019-02-18T09:07:42.297Z,32.60
2019-02-18T09:08:42.297Z,29.90
2019-02-18T09:09:42.296Z,30.00
2019-02-18T09:10:42.293Z,29.30
2019-02-18T09:11:42.274Z,26.50
2019-02-18T09:12:42.271Z,27.10
2019-02-18T09:13:42.247Z,29.80
2019-02-18T09:14:42.216Z,26.70
2019-02-18T09:15:42.227Z,28.20
2019-02-18T09:16:42.221Z,27.50
2019-02-18T09:17:42.210Z,29.40
2019-02-18T09:18:42.198Z,31.00
2019-02-18T09:19:42.182Z,29.60
2019-02-18T09:20:42.188Z,28.70
2019-02-18T09:21:42.158Z,28.90
2019-02-18T09:22:42.151Z,31.90
2019-02-18T09:23:42.154Z,26.30
2019-02-18T09:24:42.125Z,27.40
2019-02-18T09:25:43.470Z,28.20
2019-02-18T09:26:42.111Z,27.70
2019-02-18T09:27:42.102Z,25.90
2019-02-18T09:28:42.094Z,26.80
2019-02-18T09:29:42.072Z,26.70
2019-02-18T09:30:42.065Z,29.90
2019-02-18T09:31:42.910Z,27.50
2019-02-18T09:32:42.046Z,26.50
2019-02-18T09:33:42.035Z,27.60
2019-02-18T09:34:42.012Z,25.50
2019-02-18T09:35:42.037Z,26.00
2019-02-18T09:36:41.991Z,27.10
2019-02-18T09:37:41.998Z,28.40
2019-02-18T09:38:41.950Z,25.80
2019-02-18T09:39:41.960Z,25.70
2019-02-18T09:40:44.685Z,25.70
2019-02-18T09:41:42.921Z,29.00
2019-02-18T09:42:41.906Z,26.00
2019-02-18T09:43:41.894Z,25.30
2019-02-18T09:44:41.885Z,27.10
2019-02-18T09:45:41.874Z,25.60
2019-02-18T09:46:41.862Z,28.10
2019-02-18T09:47:41.856Z,25.00
2019-02-18T09:48:41.839Z,27.80
2019-02-18T09:49:41.829Z,25.00
2019-02-18T09:50:41.819Z,26.20
2019-02-18T09:51:41.811Z,26.50
2019-02-18T09:52:41.795Z,24.70
2019-02-18T09:53:41.791Z,29.70
2019-02-18T09:54:41.772Z,26.90
2019-02-18T09:55:41.762Z,26.50
2019-02-18T09:56:41.751Z,26.30
2019-02-18T09:57:41.741Z,25.10
2019-02-18T09:58:41.729Z,23.80
2019-02-18T09:59:41.717Z,27.00
2019-02-18T10:00:41.712Z,23.90
2019-02-18T10:01:43.301Z,26.70
2019-02-18T10:02:59.835Z,25.80
2019-02-18T10:04:12.150Z,21.10
2019-02-18T10:05:12.135Z,23.60
2019-02-18T10:06:55.006Z,21.80
2019-02-18T10:07:53.659Z,26.20
2019-02-18T10:09:35.193Z,19.80
2019-02-18T10:10:35.182Z,23.10
2019-02-18T10:12:18.654Z,21.50
2019-02-18T10:13:16.707Z,25.60
2019-02-18T10:14:47.174Z,22.00
2019-02-18T10:15:47.159Z,23.40
2019-02-18T10:17:28.696Z,24.40
2019-02-18T10:18:28.681Z,24.80
2019-02-18T10:20:10.217Z,20.80
2019-02-18T10:21:10.203Z,27.70
2019-02-18T10:22:51.743Z,22.40
2019-02-18T10:23:51.728Z,24.00
2019-02-18T10:25:33.264Z,21.50
2019-02-18T10:26:33.251Z,24.10
2019-02-18T10:28:15.798Z,26.50
2019-02-18T10:29:15.784Z,24.90
2019-02-18T10:30:57.327Z,24.00
2019-02-18T10:31:57.329Z,23.30
2019-02-18T10:32:57.299Z,23.60
2019-02-18T10:33:57.286Z,25.80
2019-02-18T10:34:57.278Z,25.40
2019-02-18T10:35:57.266Z,25.80
2019-02-18T10:36:57.254Z,23.70
2019-02-18T10:37:57.244Z,25.50
2019-02-18T10:38:57.230Z,23.60
2019-02-18T10:39:57.220Z,25.20
2019-02-18T10:41:06.487Z,24.70
2019-02-18T10:41:58.197Z,24.50
2019-02-18T10:42:57.188Z,22.60
2019-02-18T10:43:57.175Z,28.90
2019-02-18T10:44:57.165Z,27.10
2019-02-18T10:45:57.152Z,25.00
2019-02-18T10:46:57.141Z,26.90
2019-02-18T10:47:57.145Z,25.70
2019-02-18T10:48:57.119Z,24.40
2019-02-18T10:49:57.108Z,23.80
2019-02-18T10:50:57.098Z,23.00
2019-02-18T10:51:57.085Z,24.50
2019-02-18T10:52:57.078Z,22.30
2019-02-18T10:53:57.065Z,25.40
2019-02-18T10:54:57.052Z,24.60
2019-02-18T10:55:57.044Z,27.50
2019-02-18T10:56:57.030Z,22.00
2019-02-18T10:57:57.018Z,28.10
2019-02-18T10:58:57.009Z,24.80
2019-02-18T10:59:59.223Z,27.20
2019-02-18T11:00:56.985Z,22.90
2019-02-18T11:01:56.974Z,28.50
2019-02-18T11:02:56.969Z,25.60
2019-02-18T11:03:56.954Z,28.00
2019-02-18T11:04:56.943Z,25.90
2019-02-18T11:05:56.930Z,25.60
2019-02-18T11:06:56.920Z,22.50
2019-02-18T11:07:56.907Z,23.50
2019-02-18T11:08:56.897Z,24.20
2019-02-18T11:09:56.886Z,24.80
2019-02-18T11:10:56.880Z,26.70
2019-02-18T11:11:56.861Z,25.70
2019-02-18T11:12:56.851Z,24.60
2019-02-18T11:13:56.844Z,26.70
2019-02-18T11:14:56.828Z,28.00
2019-02-18T11:15:56.820Z,24.60
2019-02-18T11:16:56.807Z,22.00
2019-02-18T11:17:56.793Z,25.10
2019-02-18T11:18:56.784Z,23.30
2019-02-18T11:19:56.776Z,24.10
2019-02-18T11:20:56.760Z,23.00
2019-02-18T11:21:56.750Z,26.90
2019-02-18T11:22:56.738Z,25.50
2019-02-18T11:23:56.727Z,23.70
2019-02-18T11:24:56.718Z,23.00
2019-02-18T11:25:56.705Z,25.40
2019-02-18T11:26:56.701Z,23.70
2019-02-18T11:27:56.694Z,25.10
2019-02-18T11:28:56.672Z,26.30
2019-02-18T11:29:56.660Z,26.40
2019-02-18T11:30:56.653Z,23.60
2019-02-18T11:31:56.639Z,24.70
2019-02-18T11:32:56.629Z,22.50
2019-02-18T11:33:56.622Z,24.70
2019-02-18T11:34:56.604Z,24.70
2019-02-18T11:35:56.593Z,24.50
2019-02-18T11:36:56.590Z,24.20
2019-02-18T11:37:56.571Z,23.30
2019-02-18T11:38:56.560Z,23.00
2019-02-18T11:39:56.550Z,23.30
2019-02-18T11:40:56.537Z,24.40
2019-02-18T11:41:56.525Z,22.10
2019-02-18T11:42:56.513Z,24.50
2019-02-18T11:43:56.504Z,25.60
2019-02-18T11:44:56.491Z,21.50
2019-02-18T11:45:56.482Z,22.10
2019-02-18T11:46:56.469Z,21.80
2019-02-18T11:47:56.458Z,23.60
2019-02-18T11:48:56.447Z,26.30
2019-02-18T11:49:56.438Z,25.40
2019-02-18T11:50:56.424Z,23.70
2019-02-18T11:51:56.413Z,26.30
2019-02-18T11:52:56.407Z,24.20
2019-02-18T11:53:56.391Z,24.50
2019-02-18T11:54:56.379Z,23.70
2019-02-18T11:55:56.371Z,26.60
2019-02-18T11:56:56.357Z,24.00
2019-02-18T11:57:56.364Z,22.50
2019-02-18T11:58:56.337Z,22.60
2019-02-18T11:59:56.323Z,24.70
2019-02-18T12:00:56.313Z,28.10
2019-02-18T12:01:56.302Z,25.00
2019-02-18T12:03:03.650Z,22.20
2019-02-18T12:03:57.277Z,23.70
2019-02-18T12:04:56.269Z,23.40
2019-02-18T12:05:56.254Z,24.40
2019-02-18T12:06:56.244Z,24.10
2019-02-18T12:07:56.232Z,24.20
2019-02-18T12:08:56.223Z,24.60
2019-02-18T12:09:56.212Z,23.00
2019-02-18T12:10:56.207Z,26.70
2019-02-18T12:11:56.189Z,25.00
2019-02-18T12:12:56.176Z,24.90
2019-02-18T12:13:56.193Z,23.30
2019-02-18T12:14:56.155Z,25.20
2019-02-18T12:15:56.142Z,27.50
2019-02-18T12:16:56.138Z,30.90
2019-02-18T12:17:56.120Z,39.20
2019-02-18T12:18:56.109Z,26.50
2019-02-18T12:19:56.107Z,23.40
2019-02-18T12:21:15.712Z,24.00
2019-02-18T12:22:37.627Z,17.90
2019-02-18T12:23:37.613Z,21.70
2019-02-18T12:25:19.151Z,24.50
2019-02-18T12:26:19.137Z,21.20
2019-02-18T12:28:00.698Z,22.40
2019-02-18T12:29:00.666Z,21.90
2019-02-18T12:30:42.697Z,22.50
2019-02-18T12:31:42.685Z,21.70
2019-02-18T12:32:42.675Z,23.20
2019-02-18T12:33:42.664Z,21.30
2019-02-18T12:34:42.653Z,18.90
2019-02-18T12:35:42.642Z,21.40
2019-02-18T12:36:42.631Z,23.90
2019-02-18T12:37:42.619Z,23.60
2019-02-18T12:38:42.606Z,19.60
2019-02-18T12:39:42.597Z,20.30
2019-02-18T12:40:42.588Z,20.90
2019-02-18T12:41:48.609Z,19.50
2019-02-18T12:42:43.562Z,20.10
2019-02-18T12:43:42.551Z,20.30
2019-02-18T12:44:42.542Z,18.60
2019-02-18T12:45:42.529Z,20.20
2019-02-18T12:46:42.518Z,19.20
2019-02-18T12:47:42.509Z,23.30
2019-02-18T12:48:42.501Z,19.50
2019-02-18T12:49:42.487Z,20.50
2019-02-18T12:50:42.474Z,20.30
2019-02-18T12:51:42.465Z,19.20
2019-02-18T12:52:42.451Z,18.50
2019-02-18T12:53:42.441Z,19.80
2019-02-18T12:54:42.430Z,18.00
2019-02-18T12:55:42.418Z,17.90
2019-02-18T12:56:42.407Z,19.20
2019-02-18T12:57:42.398Z,19.10
2019-02-18T12:58:42.384Z,21.60
2019-02-18T12:59:42.422Z,20.00
2019-02-18T13:00:42.364Z,21.20
2019-02-18T13:01:42.354Z,19.20
2019-02-18T13:02:44.738Z,19.40